createdAt,value
2022-10-08T00:00:00.293Z,0.0
2022-10-08T00:05:00.256Z,0.0
2022-10-08T00:10:00.258Z,0.0
2022-10-08T00:15:00.283Z,0.0
2022-10-08T00:20:00.301Z,0.0
2022-10-08T00:25:00.251Z,0.1
2022-10-08T00:30:00.290Z,0.0
2022-10-08T00:35:00.253Z,0.2
2022-10-08T00:40:00.308Z,0.6
2022-10-08T00:45:00.263Z,0.3
2022-10-08T00:50:00.287Z,0.1
2022-10-08T00:55:00.244Z,0.0
2022-10-08T01:00:00.277Z,0.0
2022-10-08T01:05:00.247Z,0.0
2022-10-08T01:10:00.312Z,0.0
2022-10-08T01:15:00.265Z,0.0
2022-10-08T01:20:00.287Z,0.0
2022-10-08T01:25:00.241Z,1.0
2022-10-08T01:30:00.314Z,0.6
2022-10-08T01:35:00.307Z,0.3
2022-10-08T01:40:00.272Z,0.0
2022-10-08T01:45:00.281Z,0.0
2022-10-08T01:50:00.269Z,0.6
2022-10-08T01:55:00.255Z,2.1
2022-10-08T02:00:00.285Z,1.2
2022-10-08T02:05:00.250Z,2.7
2022-10-08T02:10:00.254Z,2.9
2022-10-08T02:15:00.395Z,0.6
2022-10-08T02:20:00.286Z,0.8
2022-10-08T02:25:00.258Z,1.7
2022-10-08T02:30:00.259Z,0.3
2022-10-08T02:35:00.271Z,0.5
2022-10-08T02:40:00.327Z,0.5
2022-10-08T02:45:00.278Z,0.9
2022-10-08T02:50:00.270Z,0.9
2022-10-08T02:55:00.264Z,0.0
2022-10-08T03:00:00.263Z,0.4
2022-10-08T03:05:00.258Z,0.8
2022-10-08T03:10:00.262Z,0.0
2022-10-08T03:15:00.267Z,0.0
2022-10-08T03:20:00.252Z,0.0
2022-10-08T03:25:00.267Z,0.2
2022-10-08T03:30:00.287Z,0.4
2022-10-08T03:35:00.231Z,0.0
2022-10-08T03:40:00.293Z,0.1
2022-10-08T03:45:00.334Z,0.3
2022-10-08T03:50:00.251Z,0.0
2022-10-08T03:55:00.262Z,0.2
2022-10-08T04:00:00.298Z,0.0
2022-10-08T04:05:00.295Z,0.0
2022-10-08T04:10:00.280Z,0.0
2022-10-08T04:15:00.490Z,0.0
2022-10-08T04:20:00.261Z,0.0
2022-10-08T04:25:00.259Z,0.3
2022-10-08T04:30:00.281Z,0.3
2022-10-08T04:35:00.281Z,0.2
2022-10-08T04:40:00.361Z,0.0
2022-10-08T04:45:00.280Z,0.3
2022-10-08T04:50:00.248Z,0.0
2022-10-08T04:55:00.267Z,0.1
2022-10-08T05:00:18.642Z,0.0
2022-10-08T05:05:00.250Z,0.0
2022-10-08T05:10:00.269Z,0.1
2022-10-08T05:15:00.297Z,0.0
2022-10-08T05:20:00.263Z,0.3
2022-10-08T05:25:00.252Z,0.3
2022-10-08T05:30:00.284Z,1.2
2022-10-08T05:35:00.241Z,1.2
2022-10-08T05:40:00.247Z,1.4
2022-10-08T05:45:00.278Z,3.0
2022-10-08T05:50:00.274Z,2.5
2022-10-08T05:55:00.272Z,1.3
2022-10-08T06:00:00.258Z,1.8
2022-10-08T06:05:00.432Z,3.0
2022-10-08T06:10:00.248Z,2.4
2022-10-08T06:15:00.275Z,1.7
2022-10-08T06:20:00.267Z,1.7
2022-10-08T06:25:00.279Z,1.2
2022-10-08T06:30:00.258Z,1.1
2022-10-08T06:35:00.268Z,3.0
2022-10-08T06:40:00.278Z,1.7
2022-10-08T06:45:02.648Z,2.3
2022-10-08T06:50:00.402Z,4.7
2022-10-08T06:55:00.245Z,3.8
2022-10-08T07:00:00.426Z,5.9
2022-10-08T07:05:00.259Z,5.5
2022-10-08T07:10:00.453Z,5.0
2022-10-08T07:15:00.283Z,3.3
2022-10-08T07:20:00.471Z,5.4
2022-10-08T07:25:00.307Z,6.4
2022-10-08T07:30:00.294Z,6.1
2022-10-08T07:35:00.397Z,8.2
2022-10-08T07:40:00.259Z,6.8
2022-10-08T07:45:00.276Z,4.1
2022-10-08T07:50:00.288Z,4.5
2022-10-08T07:55:00.261Z,6.6
2022-10-08T08:00:00.314Z,4.0
2022-10-08T08:05:00.271Z,3.6
2022-10-08T08:10:00.295Z,4.9
2022-10-08T08:15:00.257Z,5.4
2022-10-08T08:20:01.391Z,5.5
2022-10-08T08:25:00.252Z,5.8
2022-10-08T08:30:00.309Z,6.9
2022-10-08T08:35:00.259Z,4.8
2022-10-08T08:40:00.272Z,8.3
2022-10-08T08:45:00.251Z,4.7
2022-10-08T08:50:00.259Z,4.9
2022-10-08T08:55:00.246Z,5.4
2022-10-08T09:00:00.268Z,9.4
2022-10-08T09:05:00.442Z,6.9
2022-10-08T09:10:00.252Z,6.4
2022-10-08T09:15:00.264Z,5.1
2022-10-08T09:20:00.298Z,4.4
2022-10-08T09:25:00.259Z,6.1
2022-10-08T09:30:00.306Z,5.2
2022-10-08T09:35:01.174Z,6.6
2022-10-08T09:40:00.257Z,5.5
2022-10-08T09:45:00.281Z,4.4
2022-10-08T09:50:00.252Z,6.0
2022-10-08T09:55:00.313Z,4.1
2022-10-08T10:00:00.285Z,6.9
2022-10-08T10:05:00.248Z,4.8
2022-10-08T10:10:00.245Z,7.6
2022-10-08T10:15:00.267Z,7.0
2022-10-08T10:20:00.288Z,5.3
2022-10-08T10:25:00.252Z,4.5
2022-10-08T10:30:00.323Z,3.6
2022-10-08T10:35:00.252Z,4.3
2022-10-08T10:40:00.311Z,5.4
2022-10-08T10:45:00.261Z,5.0
2022-10-08T10:50:00.271Z,3.8
2022-10-08T10:55:00.285Z,5.6
2022-10-08T11:00:00.267Z,5.4
2022-10-08T11:05:02.390Z,3.9
2022-10-08T11:10:00.296Z,7.4
2022-10-08T11:15:00.268Z,8.7
2022-10-08T11:20:00.255Z,7.7
2022-10-08T11:25:00.245Z,3.3
2022-10-08T11:30:00.274Z,6.9
2022-10-08T11:35:00.276Z,7.9
2022-10-08T11:40:00.266Z,6.3
2022-10-08T11:45:00.265Z,6.8
2022-10-08T11:50:00.245Z,3.4
2022-10-08T11:55:00.250Z,8.5
2022-10-08T12:00:08.271Z,4.6
2022-10-08T12:05:00.263Z,8.2
2022-10-08T12:10:00.292Z,6.2
2022-10-08T12:15:00.266Z,3.4
2022-10-08T12:20:00.263Z,6.3
2022-10-08T12:25:00.258Z,7.1
2022-10-08T12:30:00.288Z,7.3
2022-10-08T12:35:00.250Z,8.4
2022-10-08T12:40:00.296Z,5.2
2022-10-08T12:45:00.273Z,7.1
2022-10-08T12:50:00.289Z,7.0
2022-10-08T12:55:00.253Z,6.5
2022-10-08T13:00:00.269Z,7.4
2022-10-08T13:05:00.246Z,5.9
2022-10-08T13:10:00.277Z,5.3
2022-10-08T13:15:00.256Z,7.5
2022-10-08T13:20:00.284Z,7.6
2022-10-08T13:25:00.266Z,6.4
2022-10-08T13:30:00.291Z,7.9
2022-10-08T13:35:00.232Z,7.5
2022-10-08T13:40:00.270Z,6.1
2022-10-08T13:45:00.256Z,9.0
2022-10-08T13:50:00.265Z,6.1
2022-10-08T13:55:00.305Z,8.3
2022-10-08T14:00:00.309Z,5.2
2022-10-08T14:05:00.231Z,8.1
2022-10-08T14:10:00.281Z,6.5
2022-10-08T14:15:00.252Z,6.2
2022-10-08T14:20:00.266Z,6.3
2022-10-08T14:25:00.236Z,7.0
2022-10-08T14:30:00.290Z,6.2
2022-10-08T14:35:00.227Z,7.5
2022-10-08T14:40:00.266Z,9.7
2022-10-08T14:45:00.269Z,7.1
2022-10-08T14:50:00.262Z,4.9
2022-10-08T14:55:00.244Z,7.8
2022-10-08T15:00:00.283Z,10.7
2022-10-08T15:05:00.257Z,10.2
2022-10-08T15:10:00.317Z,13.3
2022-10-08T15:15:00.282Z,11.1
2022-10-08T15:20:00.270Z,8.0
2022-10-08T15:25:00.256Z,7.1
2022-10-08T15:30:00.318Z,4.2
2022-10-08T15:35:00.257Z,4.3
2022-10-08T15:40:00.256Z,5.5
2022-10-08T15:45:00.264Z,4.4
2022-10-08T15:50:00.309Z,4.5
2022-10-08T15:55:00.252Z,4.8
2022-10-08T16:00:00.276Z,3.5
2022-10-08T16:05:00.256Z,3.4
2022-10-08T16:10:00.326Z,3.0
2022-10-08T16:15:00.267Z,2.9
2022-10-08T16:20:00.288Z,4.1
2022-10-08T16:25:00.257Z,5.5
2022-10-08T16:30:00.284Z,3.9
2022-10-08T16:35:00.266Z,4.1
2022-10-08T16:40:00.443Z,5.0
2022-10-08T16:45:00.270Z,4.1
2022-10-08T16:50:00.473Z,4.0
2022-10-08T16:55:00.282Z,4.7
2022-10-08T17:00:00.521Z,5.3
2022-10-08T17:05:00.242Z,2.9
2022-10-08T17:10:00.285Z,4.6
2022-10-08T17:15:00.271Z,3.4
2022-10-08T17:20:00.254Z,4.0
2022-10-08T17:25:00.275Z,3.5
2022-10-08T17:30:00.312Z,3.0
2022-10-08T17:35:00.242Z,2.0
2022-10-08T17:40:00.341Z,4.0
2022-10-08T17:45:00.297Z,3.4
2022-10-08T17:50:00.258Z,6.7
2022-10-08T17:55:00.256Z,5.0
2022-10-08T18:00:00.287Z,5.3
2022-10-08T18:05:00.277Z,4.1
2022-10-08T18:10:00.255Z,3.2
2022-10-08T18:15:00.269Z,3.8
2022-10-08T18:20:00.313Z,2.7
2022-10-08T18:25:00.240Z,3.2
2022-10-08T18:30:00.283Z,3.3
2022-10-08T18:35:00.246Z,2.4
2022-10-08T18:40:00.265Z,2.2
2022-10-08T18:45:00.266Z,2.7
2022-10-08T18:50:00.273Z,3.1
2022-10-08T18:55:00.250Z,3.2
2022-10-08T19:00:00.284Z,4.4
2022-10-08T19:05:00.247Z,4.5
2022-10-08T19:10:00.245Z,3.9
2022-10-08T19:15:00.269Z,3.2
2022-10-08T19:20:00.263Z,3.6
2022-10-08T19:25:00.251Z,5.1
2022-10-08T19:30:00.285Z,5.4
2022-10-08T19:35:00.250Z,4.2
2022-10-08T19:40:00.251Z,3.4
2022-10-08T19:45:00.267Z,4.0
2022-10-08T19:50:00.254Z,3.8
2022-10-08T19:55:00.268Z,3.6
2022-10-08T20:00:00.263Z,5.0
2022-10-08T20:05:00.237Z,4.3
2022-10-08T20:10:00.253Z,3.1
2022-10-08T20:15:00.441Z,5.4
2022-10-08T20:20:31.508Z,4.1
2022-10-08T20:25:00.231Z,3.7
2022-10-08T20:30:00.269Z,4.0
2022-10-08T20:35:00.270Z,3.0
2022-10-08T20:40:00.283Z,2.9
2022-10-08T20:45:00.242Z,3.9
2022-10-08T20:50:00.263Z,4.1
2022-10-08T20:55:00.237Z,3.8
2022-10-08T21:00:00.261Z,4.4
2022-10-08T21:05:00.257Z,4.6
2022-10-08T21:10:00.272Z,5.0
2022-10-08T21:15:00.441Z,3.3
2022-10-08T21:20:00.272Z,2.7
2022-10-08T21:25:00.313Z,1.5
2022-10-08T21:30:00.322Z,1.5
2022-10-08T21:35:00.256Z,1.8
2022-10-08T21:40:00.282Z,1.6
2022-10-08T21:45:00.241Z,2.5
2022-10-08T21:50:00.261Z,1.7
2022-10-08T21:55:00.251Z,0.8
2022-10-08T22:00:00.388Z,2.1
2022-10-08T22:05:00.238Z,2.4
2022-10-08T22:10:00.264Z,1.0
2022-10-08T22:15:00.242Z,2.2
2022-10-08T22:20:00.272Z,2.3
2022-10-08T22:25:00.274Z,2.7
2022-10-08T22:30:00.307Z,1.6
2022-10-08T22:35:00.399Z,1.5
2022-10-08T22:40:00.301Z,1.5
2022-10-08T22:45:00.276Z,2.6
2022-10-08T22:50:00.318Z,2.2
2022-10-08T22:55:00.294Z,1.7
2022-10-08T23:00:00.305Z,3.2
2022-10-08T23:05:00.425Z,2.4
2022-10-08T23:10:00.278Z,1.3
2022-10-08T23:15:00.307Z,2.5
2022-10-08T23:20:00.301Z,2.5
2022-10-08T23:25:00.280Z,2.0
2022-10-08T23:30:00.302Z,2.1
2022-10-08T23:35:00.295Z,2.9
2022-10-08T23:40:00.300Z,2.4
2022-10-08T23:45:00.302Z,2.3
2022-10-08T23:50:00.391Z,3.3
2022-10-08T23:55:00.316Z,1.6
